sensor_id;sensor_type;location;lat;lon;timestamp;P1;durP1;ratioP1;P2;durP2;ratioP2
51961;SDS011;37986;51.238;17.128;2022-08-03T00:01:42;5.40;;;4.83;;
51961;SDS011;37986;51.238;17.128;2022-08-03T00:04:09;6.05;;;4.85;;
51961;SDS011;37986;51.238;17.128;2022-08-03T00:06:36;12.10;;;4.70;;
51961;SDS011;37986;51.238;17.128;2022-08-03T00:09:02;5.97;;;4.70;;
51961;SDS011;37986;51.238;17.128;2022-08-03T00:11:29;5.58;;;4.20;;
51961;SDS011;37986;51.238;17.128;2022-08-03T00:13:55;6.05;;;4.72;;
51961;SDS011;37986;51.238;17.128;2022-08-03T00:16:21;5.62;;;4.80;;
51961;SDS011;37986;51.238;17.128;2022-08-03T00:18:48;7.83;;;5.47;;
51961;SDS011;37986;51.238;17.128;2022-08-03T00:21:14;5.62;;;5.10;;
51961;SDS011;37986;51.238;17.128;2022-08-03T00:23:40;6.20;;;5.12;;
51961;SDS011;37986;51.238;17.128;2022-08-03T00:26:06;9.05;;;5.75;;
51961;SDS011;37986;51.238;17.128;2022-08-03T00:28:31;10.18;;;5.22;;
51961;SDS011;37986;51.238;17.128;2022-08-03T00:30:57;8.75;;;5.40;;
51961;SDS011;37986;51.238;17.128;2022-08-03T00:33:23;6.80;;;5.92;;
51961;SDS011;37986;51.238;17.128;2022-08-03T00:35:49;7.53;;;5.50;;
51961;SDS011;37986;51.238;17.128;2022-08-03T00:38:16;6.92;;;5.15;;
51961;SDS011;37986;51.238;17.128;2022-08-03T00:40:44;5.85;;;5.22;;
51961;SDS011;37986;51.238;17.128;2022-08-03T00:43:10;5.92;;;5.33;;
51961;SDS011;37986;51.238;17.128;2022-08-03T00:45:41;6.72;;;5.08;;
51961;SDS011;37986;51.238;17.128;2022-08-03T00:48:07;6.95;;;5.72;;
51961;SDS011;37986;51.238;17.128;2022-08-03T00:50:35;7.05;;;5.45;;
51961;SDS011;37986;51.238;17.128;2022-08-03T00:53:04;8.25;;;6.05;;
51961;SDS011;37986;51.238;17.128;2022-08-03T00:55:32;6.62;;;5.58;;
51961;SDS011;37986;51.238;17.128;2022-08-03T00:58:00;7.78;;;5.53;;
51961;SDS011;37986;51.238;17.128;2022-08-03T01:00:31;7.83;;;5.70;;
51961;SDS011;37986;51.238;17.128;2022-08-03T01:03:06;8.15;;;5.72;;
51961;SDS011;37986;51.238;17.128;2022-08-03T01:05:39;6.67;;;5.85;;
51961;SDS011;37986;51.238;17.128;2022-08-03T01:13:54;7.83;;;5.72;;
51961;SDS011;37986;51.238;17.128;2022-08-03T01:16:30;7.00;;;5.90;;
51961;SDS011;37986;51.238;17.128;2022-08-03T01:19:48;7.90;;;6.20;;
51961;SDS011;37986;51.238;17.128;2022-08-03T01:31:13;8.10;;;6.58;;
51961;SDS011;37986;51.238;17.128;2022-08-03T01:33:46;6.80;;;6.20;;
51961;SDS011;37986;51.238;17.128;2022-08-03T01:36:15;7.67;;;6.80;;
51961;SDS011;37986;51.238;17.128;2022-08-03T01:38:48;6.83;;;6.03;;
51961;SDS011;37986;51.238;17.128;2022-08-03T01:41:23;7.35;;;6.58;;
51961;SDS011;37986;51.238;17.128;2022-08-03T01:43:51;7.28;;;6.58;;
51961;SDS011;37986;51.238;17.128;2022-08-03T01:46:18;8.13;;;7.20;;
51961;SDS011;37986;51.238;17.128;2022-08-03T01:48:45;10.30;;;7.20;;
51961;SDS011;37986;51.238;17.128;2022-08-03T01:51:14;7.47;;;6.70;;
51961;SDS011;37986;51.238;17.128;2022-08-03T01:53:43;7.42;;;6.62;;
51961;SDS011;37986;51.238;17.128;2022-08-03T01:56:09;8.98;;;7.12;;
51961;SDS011;37986;51.238;17.128;2022-08-03T01:58:36;8.83;;;7.25;;
51961;SDS011;37986;51.238;17.128;2022-08-03T02:01:03;7.85;;;7.10;;
51961;SDS011;37986;51.238;17.128;2022-08-03T02:03:30;8.05;;;7.25;;
51961;SDS011;37986;51.238;17.128;2022-08-03T02:06:00;7.62;;;6.92;;
51961;SDS011;37986;51.238;17.128;2022-08-03T02:08:27;9.75;;;7.45;;
51961;SDS011;37986;51.238;17.128;2022-08-03T02:10:55;8.10;;;7.30;;
51961;SDS011;37986;51.238;17.128;2022-08-03T02:13:22;8.00;;;7.20;;
51961;SDS011;37986;51.238;17.128;2022-08-03T02:15:49;8.03;;;7.22;;
51961;SDS011;37986;51.238;17.128;2022-08-03T02:18:17;8.08;;;7.28;;
51961;SDS011;37986;51.238;17.128;2022-08-03T02:20:44;11.45;;;7.08;;
51961;SDS011;37986;51.238;17.128;2022-08-03T02:23:11;9.38;;;7.75;;
51961;SDS011;37986;51.238;17.128;2022-08-03T02:25:44;10.70;;;7.30;;
51961;SDS011;37986;51.238;17.128;2022-08-03T02:28:15;8.43;;;7.55;;
51961;SDS011;37986;51.238;17.128;2022-08-03T02:30:44;8.58;;;7.72;;
51961;SDS011;37986;51.238;17.128;2022-08-03T02:33:15;9.03;;;7.42;;
51961;SDS011;37986;51.238;17.128;2022-08-03T02:35:44;8.93;;;8.03;;
51961;SDS011;37986;51.238;17.128;2022-08-03T02:38:11;9.28;;;7.75;;
51961;SDS011;37986;51.238;17.128;2022-08-03T02:40:38;9.18;;;8.03;;
51961;SDS011;37986;51.238;17.128;2022-08-03T02:43:06;8.73;;;7.92;;
51961;SDS011;37986;51.238;17.128;2022-08-03T02:45:35;10.40;;;8.78;;
51961;SDS011;37986;51.238;17.128;2022-08-03T02:48:06;9.15;;;8.25;;
51961;SDS011;37986;51.238;17.128;2022-08-03T02:50:33;10.00;;;8.25;;
51961;SDS011;37986;51.238;17.128;2022-08-03T02:52:59;12.25;;;8.18;;
51961;SDS011;37986;51.238;17.128;2022-08-03T02:55:26;9.93;;;8.68;;
51961;SDS011;37986;51.238;17.128;2022-08-03T02:57:53;10.32;;;8.80;;
51961;SDS011;37986;51.238;17.128;2022-08-03T03:00:20;9.73;;;8.75;;
51961;SDS011;37986;51.238;17.128;2022-08-03T03:02:46;9.83;;;8.83;;
51961;SDS011;37986;51.238;17.128;2022-08-03T03:05:13;8.95;;;8.03;;
51961;SDS011;37986;51.238;17.128;2022-08-03T03:07:39;14.18;;;8.90;;
51961;SDS011;37986;51.238;17.128;2022-08-03T03:10:07;10.32;;;9.33;;
51961;SDS011;37986;51.238;17.128;2022-08-03T03:12:34;10.43;;;9.00;;
51961;SDS011;37986;51.238;17.128;2022-08-03T03:15:03;10.53;;;8.95;;
51961;SDS011;37986;51.238;17.128;2022-08-03T03:17:30;9.80;;;8.90;;
51961;SDS011;37986;51.238;17.128;2022-08-03T03:20:00;11.78;;;9.73;;
51961;SDS011;37986;51.238;17.128;2022-08-03T03:22:28;10.60;;;9.58;;
51961;SDS011;37986;51.238;17.128;2022-08-03T03:24:55;11.30;;;10.13;;
51961;SDS011;37986;51.238;17.128;2022-08-03T03:27:21;10.23;;;9.23;;
51961;SDS011;37986;51.238;17.128;2022-08-03T03:29:47;12.80;;;9.93;;
51961;SDS011;37986;51.238;17.128;2022-08-03T03:32:13;14.38;;;10.72;;
51961;SDS011;37986;51.238;17.128;2022-08-03T03:34:39;12.78;;;9.53;;
51961;SDS011;37986;51.238;17.128;2022-08-03T03:37:06;10.95;;;9.90;;
51961;SDS011;37986;51.238;17.128;2022-08-03T03:39:32;10.80;;;9.60;;
51961;SDS011;37986;51.238;17.128;2022-08-03T03:42:00;10.58;;;9.50;;
51961;SDS011;37986;51.238;17.128;2022-08-03T03:44:27;10.80;;;9.80;;
51961;SDS011;37986;51.238;17.128;2022-08-03T03:46:58;10.85;;;9.85;;
51961;SDS011;37986;51.238;17.128;2022-08-03T03:49:22;11.70;;;10.08;;
51961;SDS011;37986;51.238;17.128;2022-08-03T03:51:51;16.35;;;10.68;;
51961;SDS011;37986;51.238;17.128;2022-08-03T03:54:19;12.30;;;10.60;;
51961;SDS011;37986;51.238;17.128;2022-08-03T03:56:45;13.28;;;10.68;;
51961;SDS011;37986;51.238;17.128;2022-08-03T03:59:11;13.68;;;10.15;;
51961;SDS011;37986;51.238;17.128;2022-08-03T04:01:37;11.10;;;10.10;;
51961;SDS011;37986;51.238;17.128;2022-08-03T04:04:04;10.70;;;9.75;;
51961;SDS011;37986;51.238;17.128;2022-08-03T04:06:38;11.53;;;9.50;;
51961;SDS011;37986;51.238;17.128;2022-08-03T04:09:22;11.00;;;9.85;;
51961;SDS011;37986;51.238;17.128;2022-08-03T04:12:06;15.08;;;10.63;;
51961;SDS011;37986;51.238;17.128;2022-08-03T04:14:34;12.50;;;10.32;;
51961;SDS011;37986;51.238;17.128;2022-08-03T04:17:01;14.87;;;10.08;;
51961;SDS011;37986;51.238;17.128;2022-08-03T04:19:34;14.50;;;9.93;;
51961;SDS011;37986;51.238;17.128;2022-08-03T04:22:13;11.97;;;10.38;;
51961;SDS011;37986;51.238;17.128;2022-08-03T04:24:45;13.48;;;10.45;;
51961;SDS011;37986;51.238;17.128;2022-08-03T04:27:16;11.50;;;10.30;;
51961;SDS011;37986;51.238;17.128;2022-08-03T04:29:46;11.55;;;10.45;;
51961;SDS011;37986;51.238;17.128;2022-08-03T04:32:13;11.08;;;9.95;;
51961;SDS011;37986;51.238;17.128;2022-08-03T04:34:41;11.65;;;10.50;;
51961;SDS011;37986;51.238;17.128;2022-08-03T04:37:09;11.38;;;10.20;;
51961;SDS011;37986;51.238;17.128;2022-08-03T04:39:36;12.18;;;9.88;;
51961;SDS011;37986;51.238;17.128;2022-08-03T04:42:05;12.00;;;10.78;;
51961;SDS011;37986;51.238;17.128;2022-08-03T04:44:36;11.28;;;9.48;;
51961;SDS011;37986;51.238;17.128;2022-08-03T04:47:04;10.60;;;9.48;;
51961;SDS011;37986;51.238;17.128;2022-08-03T04:49:31;11.38;;;10.18;;
51961;SDS011;37986;51.238;17.128;2022-08-03T04:51:58;11.68;;;10.32;;
51961;SDS011;37986;51.238;17.128;2022-08-03T04:54:23;12.23;;;10.03;;
51961;SDS011;37986;51.238;17.128;2022-08-03T04:56:49;11.28;;;10.13;;
51961;SDS011;37986;51.238;17.128;2022-08-03T04:59:15;11.93;;;10.70;;
51961;SDS011;37986;51.238;17.128;2022-08-03T05:01:42;12.85;;;10.18;;
51961;SDS011;37986;51.238;17.128;2022-08-03T05:04:08;15.38;;;10.70;;
51961;SDS011;37986;51.238;17.128;2022-08-03T05:06:34;10.95;;;9.93;;
51961;SDS011;37986;51.238;17.128;2022-08-03T05:09:00;11.57;;;8.93;;
51961;SDS011;37986;51.238;17.128;2022-08-03T05:11:27;10.05;;;8.68;;
51961;SDS011;37986;51.238;17.128;2022-08-03T05:13:53;11.68;;;8.95;;
51961;SDS011;37986;51.238;17.128;2022-08-03T05:16:19;11.03;;;9.10;;
51961;SDS011;37986;51.238;17.128;2022-08-03T05:18:45;12.40;;;9.00;;
51961;SDS011;37986;51.238;17.128;2022-08-03T05:21:11;9.88;;;8.88;;
51961;SDS011;37986;51.238;17.128;2022-08-03T05:23:43;9.58;;;8.58;;
51961;SDS011;37986;51.238;17.128;2022-08-03T05:26:12;9.80;;;8.85;;
51961;SDS011;37986;51.238;17.128;2022-08-03T05:28:38;10.40;;;7.97;;
51961;SDS011;37986;51.238;17.128;2022-08-03T05:31:06;10.75;;;8.13;;
51961;SDS011;37986;51.238;17.128;2022-08-03T05:33:35;9.48;;;8.30;;
51961;SDS011;37986;51.238;17.128;2022-08-03T05:36:01;10.53;;;7.75;;
51961;SDS011;37986;51.238;17.128;2022-08-03T05:38:31;7.92;;;7.12;;
51961;SDS011;37986;51.238;17.128;2022-08-03T05:40:57;7.40;;;6.70;;
51961;SDS011;37986;51.238;17.128;2022-08-03T05:43:23;8.15;;;7.35;;
51961;SDS011;37986;51.238;17.128;2022-08-03T05:45:49;9.98;;;6.72;;
51961;SDS011;37986;51.238;17.128;2022-08-03T05:48:15;6.90;;;6.28;;
51961;SDS011;37986;51.238;17.128;2022-08-03T05:50:41;7.75;;;6.50;;
51961;SDS011;37986;51.238;17.128;2022-08-03T05:53:07;7.55;;;6.85;;
51961;SDS011;37986;51.238;17.128;2022-08-03T05:55:33;10.65;;;6.28;;
51961;SDS011;37986;51.238;17.128;2022-08-03T05:57:58;12.03;;;6.58;;
51961;SDS011;37986;51.238;17.128;2022-08-03T06:00:26;8.55;;;6.45;;
51961;SDS011;37986;51.238;17.128;2022-08-03T06:02:52;7.75;;;5.90;;
51961;SDS011;37986;51.238;17.128;2022-08-03T06:05:18;6.78;;;6.08;;
51961;SDS011;37986;51.238;17.128;2022-08-03T06:07:44;7.40;;;6.40;;
51961;SDS011;37986;51.238;17.128;2022-08-03T06:10:11;7.72;;;6.03;;
51961;SDS011;37986;51.238;17.128;2022-08-03T06:12:36;8.55;;;6.30;;
51961;SDS011;37986;51.238;17.128;2022-08-03T06:15:04;7.87;;;6.45;;
51961;SDS011;37986;51.238;17.128;2022-08-03T06:17:31;9.23;;;5.35;;
51961;SDS011;37986;51.238;17.128;2022-08-03T06:19:57;6.28;;;5.67;;
51961;SDS011;37986;51.238;17.128;2022-08-03T06:22:23;8.83;;;6.08;;
51961;SDS011;37986;51.238;17.128;2022-08-03T06:24:48;7.17;;;6.47;;
51961;SDS011;37986;51.238;17.128;2022-08-03T06:27:15;7.75;;;6.00;;
51961;SDS011;37986;51.238;17.128;2022-08-03T06:29:40;7.22;;;5.30;;
51961;SDS011;37986;51.238;17.128;2022-08-03T06:32:06;7.33;;;5.78;;
51961;SDS011;37986;51.238;17.128;2022-08-03T06:34:32;9.18;;;6.55;;
51961;SDS011;37986;51.238;17.128;2022-08-03T06:36:58;9.08;;;6.28;;
51961;SDS011;37986;51.238;17.128;2022-08-03T06:39:24;6.28;;;5.40;;
51961;SDS011;37986;51.238;17.128;2022-08-03T06:41:50;6.55;;;4.90;;
51961;SDS011;37986;51.238;17.128;2022-08-03T06:44:17;8.70;;;6.22;;
51961;SDS011;37986;51.238;17.128;2022-08-03T06:46:43;10.50;;;4.58;;
51961;SDS011;37986;51.238;17.128;2022-08-03T06:49:08;7.33;;;4.80;;
51961;SDS011;37986;51.238;17.128;2022-08-03T06:51:34;8.23;;;4.60;;
51961;SDS011;37986;51.238;17.128;2022-08-03T06:54:00;12.55;;;5.42;;
51961;SDS011;37986;51.238;17.128;2022-08-03T06:56:26;8.58;;;4.25;;
51961;SDS011;37986;51.238;17.128;2022-08-03T06:58:52;8.00;;;3.47;;
51961;SDS011;37986;51.238;17.128;2022-08-03T07:01:18;4.58;;;3.50;;
51961;SDS011;37986;51.238;17.128;2022-08-03T07:03:43;9.73;;;3.50;;
51961;SDS011;37986;51.238;17.128;2022-08-03T07:06:09;7.10;;;4.37;;
51961;SDS011;37986;51.238;17.128;2022-08-03T07:08:35;5.33;;;3.30;;
51961;SDS011;37986;51.238;17.128;2022-08-03T07:11:01;5.67;;;4.40;;
51961;SDS011;37986;51.238;17.128;2022-08-03T07:13:27;28.25;;;21.90;;
51961;SDS011;37986;51.238;17.128;2022-08-03T07:15:53;4.35;;;3.80;;
51961;SDS011;37986;51.238;17.128;2022-08-03T07:18:19;40.05;;;34.27;;
51961;SDS011;37986;51.238;17.128;2022-08-03T07:20:45;5.08;;;3.87;;
51961;SDS011;37986;51.238;17.128;2022-08-03T07:23:11;4.92;;;3.70;;
51961;SDS011;37986;51.238;17.128;2022-08-03T07:25:37;11.83;;;3.58;;
51961;SDS011;37986;51.238;17.128;2022-08-03T07:28:03;4.47;;;2.65;;
51961;SDS011;37986;51.238;17.128;2022-08-03T07:30:29;5.00;;;3.27;;
51961;SDS011;37986;51.238;17.128;2022-08-03T07:32:55;5.08;;;3.40;;
51961;SDS011;37986;51.238;17.128;2022-08-03T07:35:20;4.37;;;3.17;;
51961;SDS011;37986;51.238;17.128;2022-08-03T07:37:47;5.60;;;3.12;;
51961;SDS011;37986;51.238;17.128;2022-08-03T07:40:12;5.25;;;3.20;;
51961;SDS011;37986;51.238;17.128;2022-08-03T07:42:38;4.83;;;3.35;;
51961;SDS011;37986;51.238;17.128;2022-08-03T07:45:04;16.05;;;4.70;;
51961;SDS011;37986;51.238;17.128;2022-08-03T07:47:32;7.10;;;4.70;;
51961;SDS011;37986;51.238;17.128;2022-08-03T07:49:59;5.80;;;3.30;;
51961;SDS011;37986;51.238;17.128;2022-08-03T07:52:25;5.22;;;2.80;;
51961;SDS011;37986;51.238;17.128;2022-08-03T07:55:09;5.15;;;3.35;;
51961;SDS011;37986;51.238;17.128;2022-08-03T07:57:35;3.25;;;2.92;;
51961;SDS011;37986;51.238;17.128;2022-08-03T08:00:06;3.00;;;2.60;;
51961;SDS011;37986;51.238;17.128;2022-08-03T08:04:59;3.10;;;2.77;;
51961;SDS011;37986;51.238;17.128;2022-08-03T08:07:24;2.75;;;2.37;;
51961;SDS011;37986;51.238;17.128;2022-08-03T08:09:50;2.72;;;2.37;;
51961;SDS011;37986;51.238;17.128;2022-08-03T08:12:16;4.30;;;2.87;;
51961;SDS011;37986;51.238;17.128;2022-08-03T08:14:42;4.25;;;2.52;;
51961;SDS011;37986;51.238;17.128;2022-08-03T08:17:10;2.70;;;2.33;;
51961;SDS011;37986;51.238;17.128;2022-08-03T08:19:35;3.30;;;2.72;;
51961;SDS011;37986;51.238;17.128;2022-08-03T08:22:01;5.58;;;2.20;;
51961;SDS011;37986;51.238;17.128;2022-08-03T08:24:27;6.72;;;2.55;;
51961;SDS011;37986;51.238;17.128;2022-08-03T08:26:55;5.10;;;1.95;;
51961;SDS011;37986;51.238;17.128;2022-08-03T08:29:21;6.72;;;2.35;;
51961;SDS011;37986;51.238;17.128;2022-08-03T08:31:48;2.45;;;2.15;;
51961;SDS011;37986;51.238;17.128;2022-08-03T08:34:14;9.23;;;2.33;;
51961;SDS011;37986;51.238;17.128;2022-08-03T08:36:41;5.15;;;2.60;;
51961;SDS011;37986;51.238;17.128;2022-08-03T08:39:06;5.28;;;2.70;;
51961;SDS011;37986;51.238;17.128;2022-08-03T08:41:32;4.62;;;1.90;;
51961;SDS011;37986;51.238;17.128;2022-08-03T08:43:59;3.35;;;2.37;;
51961;SDS011;37986;51.238;17.128;2022-08-03T08:46:26;8.90;;;2.40;;
51961;SDS011;37986;51.238;17.128;2022-08-03T08:48:56;2.95;;;2.60;;
51961;SDS011;37986;51.238;17.128;2022-08-03T08:51:29;3.75;;;2.10;;
51961;SDS011;37986;51.238;17.128;2022-08-03T08:53:57;4.78;;;2.12;;
51961;SDS011;37986;51.238;17.128;2022-08-03T08:56:27;3.67;;;2.27;;
51961;SDS011;37986;51.238;17.128;2022-08-03T08:58:56;3.00;;;2.15;;
51961;SDS011;37986;51.238;17.128;2022-08-03T09:01:26;3.15;;;2.30;;
51961;SDS011;37986;51.238;17.128;2022-08-03T09:03:52;8.48;;;2.20;;
51961;SDS011;37986;51.238;17.128;2022-08-03T09:06:19;3.77;;;1.60;;
51961;SDS011;37986;51.238;17.128;2022-08-03T09:08:47;1.87;;;1.70;;
51961;SDS011;37986;51.238;17.128;2022-08-03T09:11:13;4.22;;;1.95;;
51961;SDS011;37986;51.238;17.128;2022-08-03T09:13:39;6.10;;;2.52;;
51961;SDS011;37986;51.238;17.128;2022-08-03T09:16:08;3.77;;;2.47;;
51961;SDS011;37986;51.238;17.128;2022-08-03T09:18:44;3.22;;;2.08;;
51961;SDS011;37986;51.238;17.128;2022-08-03T09:21:24;5.05;;;2.20;;
51961;SDS011;37986;51.238;17.128;2022-08-03T09:23:51;5.03;;;1.50;;
51961;SDS011;37986;51.238;17.128;2022-08-03T09:26:22;3.60;;;1.62;;
51961;SDS011;37986;51.238;17.128;2022-08-03T09:34:10;4.70;;;2.22;;
51961;SDS011;37986;51.238;17.128;2022-08-03T09:41:42;4.70;;;2.45;;
51961;SDS011;37986;51.238;17.128;2022-08-03T09:44:13;6.00;;;1.80;;
51961;SDS011;37986;51.238;17.128;2022-08-03T09:46:46;2.35;;;1.72;;
51961;SDS011;37986;51.238;17.128;2022-08-03T09:49:17;4.28;;;2.00;;
51961;SDS011;37986;51.238;17.128;2022-08-03T09:51:43;5.83;;;3.00;;
51961;SDS011;37986;51.238;17.128;2022-08-03T09:54:09;4.70;;;2.37;;
51961;SDS011;37986;51.238;17.128;2022-08-03T09:56:45;2.87;;;2.30;;
51961;SDS011;37986;51.238;17.128;2022-08-03T09:59:12;5.97;;;1.87;;
51961;SDS011;37986;51.238;17.128;2022-08-03T10:01:42;5.20;;;2.17;;
51961;SDS011;37986;51.238;17.128;2022-08-03T10:04:12;3.70;;;2.75;;
51961;SDS011;37986;51.238;17.128;2022-08-03T10:06:39;4.97;;;2.42;;
51961;SDS011;37986;51.238;17.128;2022-08-03T10:11:35;2.62;;;2.33;;
51961;SDS011;37986;51.238;17.128;2022-08-03T10:14:07;3.30;;;1.52;;
51961;SDS011;37986;51.238;17.128;2022-08-03T10:16:33;1.98;;;1.77;;
51961;SDS011;37986;51.238;17.128;2022-08-03T10:19:02;2.83;;;1.60;;
51961;SDS011;37986;51.238;17.128;2022-08-03T10:21:31;3.37;;;2.40;;
51961;SDS011;37986;51.238;17.128;2022-08-03T10:24:06;2.25;;;2.05;;
51961;SDS011;37986;51.238;17.128;2022-08-03T10:26:35;3.77;;;1.75;;
51961;SDS011;37986;51.238;17.128;2022-08-03T10:29:05;2.00;;;1.60;;
51961;SDS011;37986;51.238;17.128;2022-08-03T10:31:43;1.90;;;1.62;;
51961;SDS011;37986;51.238;17.128;2022-08-03T10:34:16;3.25;;;1.82;;
51961;SDS011;37986;51.238;17.128;2022-08-03T10:36:50;2.77;;;2.17;;
51961;SDS011;37986;51.238;17.128;2022-08-03T10:39:20;4.40;;;1.92;;
51961;SDS011;37986;51.238;17.128;2022-08-03T10:41:48;6.03;;;1.87;;
51961;SDS011;37986;51.238;17.128;2022-08-03T10:44:19;3.83;;;2.25;;
51961;SDS011;37986;51.238;17.128;2022-08-03T10:46:48;5.55;;;1.50;;
51961;SDS011;37986;51.238;17.128;2022-08-03T10:49:16;2.02;;;1.65;;
51961;SDS011;37986;51.238;17.128;2022-08-03T10:51:44;1.80;;;1.70;;
51961;SDS011;37986;51.238;17.128;2022-08-03T11:00:22;1.52;;;1.35;;
51961;SDS011;37986;51.238;17.128;2022-08-03T11:03:02;2.72;;;1.60;;
51961;SDS011;37986;51.238;17.128;2022-08-03T11:05:35;5.33;;;1.60;;
51961;SDS011;37986;51.238;17.128;2022-08-03T11:13:25;1.77;;;1.40;;
51961;SDS011;37986;51.238;17.128;2022-08-03T11:15:57;2.83;;;1.60;;
51961;SDS011;37986;51.238;17.128;2022-08-03T11:18:26;1.90;;;1.80;;
51961;SDS011;37986;51.238;17.128;2022-08-03T11:20:54;6.30;;;1.75;;
51961;SDS011;37986;51.238;17.128;2022-08-03T11:23:42;2.22;;;1.47;;
51961;SDS011;37986;51.238;17.128;2022-08-03T11:26:21;4.62;;;1.42;;
51961;SDS011;37986;51.238;17.128;2022-08-03T11:28:45;2.58;;;1.40;;
51961;SDS011;37986;51.238;17.128;2022-08-03T11:34:10;1.75;;;1.20;;
51961;SDS011;37986;51.238;17.128;2022-08-03T11:39:43;2.45;;;1.27;;
51961;SDS011;37986;51.238;17.128;2022-08-03T11:44:56;2.80;;;1.32;;
51961;SDS011;37986;51.238;17.128;2022-08-03T11:47:24;2.45;;;1.50;;
51961;SDS011;37986;51.238;17.128;2022-08-03T11:49:53;3.08;;;1.32;;
51961;SDS011;37986;51.238;17.128;2022-08-03T11:52:23;2.72;;;1.27;;
51961;SDS011;37986;51.238;17.128;2022-08-03T11:54:52;5.87;;;1.35;;
51961;SDS011;37986;51.238;17.128;2022-08-03T11:57:33;2.27;;;1.60;;
51961;SDS011;37986;51.238;17.128;2022-08-03T11:59:58;2.98;;;1.40;;
51961;SDS011;37986;51.238;17.128;2022-08-03T12:02:24;1.98;;;1.62;;
51961;SDS011;37986;51.238;17.128;2022-08-03T12:07:22;1.40;;;1.30;;
51961;SDS011;37986;51.238;17.128;2022-08-03T12:12:39;2.45;;;1.52;;
51961;SDS011;37986;51.238;17.128;2022-08-03T12:15:07;2.60;;;1.40;;
51961;SDS011;37986;51.238;17.128;2022-08-03T12:17:34;2.30;;;1.42;;
51961;SDS011;37986;51.238;17.128;2022-08-03T12:20:04;3.00;;;1.20;;
51961;SDS011;37986;51.238;17.128;2022-08-03T12:22:33;1.02;;;1.00;;
51961;SDS011;37986;51.238;17.128;2022-08-03T12:25:04;3.22;;;1.50;;
51961;SDS011;37986;51.238;17.128;2022-08-03T12:27:32;3.95;;;1.40;;
51961;SDS011;37986;51.238;17.128;2022-08-03T12:29:58;1.40;;;1.25;;
51961;SDS011;37986;51.238;17.128;2022-08-03T12:32:30;2.27;;;1.42;;
51961;SDS011;37986;51.238;17.128;2022-08-03T12:34:54;2.42;;;1.50;;
51961;SDS011;37986;51.238;17.128;2022-08-03T12:37:29;1.82;;;1.32;;
51961;SDS011;37986;51.238;17.128;2022-08-03T12:39:56;1.85;;;1.40;;
51961;SDS011;37986;51.238;17.128;2022-08-03T12:42:29;1.90;;;1.17;;
51961;SDS011;37986;51.238;17.128;2022-08-03T12:44:56;1.40;;;1.30;;
51961;SDS011;37986;51.238;17.128;2022-08-03T12:47:22;3.77;;;1.85;;
51961;SDS011;37986;51.238;17.128;2022-08-03T12:49:49;1.85;;;1.30;;
51961;SDS011;37986;51.238;17.128;2022-08-03T12:52:17;2.75;;;1.20;;
51961;SDS011;37986;51.238;17.128;2022-08-03T12:54:53;1.90;;;1.27;;
51961;SDS011;37986;51.238;17.128;2022-08-03T12:57:22;1.80;;;1.50;;
51961;SDS011;37986;51.238;17.128;2022-08-03T12:59:48;1.60;;;1.40;;
51961;SDS011;37986;51.238;17.128;2022-08-03T13:02:15;2.12;;;1.35;;
51961;SDS011;37986;51.238;17.128;2022-08-03T13:04:44;3.10;;;1.22;;
51961;SDS011;37986;51.238;17.128;2022-08-03T13:07:13;2.60;;;1.25;;
51961;SDS011;37986;51.238;17.128;2022-08-03T13:12:25;4.60;;;1.35;;
51961;SDS011;37986;51.238;17.128;2022-08-03T13:14:51;1.30;;;1.20;;
51961;SDS011;37986;51.238;17.128;2022-08-03T13:17:20;3.50;;;1.30;;
51961;SDS011;37986;51.238;17.128;2022-08-03T13:19:46;2.52;;;1.15;;
51961;SDS011;37986;51.238;17.128;2022-08-03T13:22:14;2.05;;;1.42;;
51961;SDS011;37986;51.238;17.128;2022-08-03T13:24:45;3.72;;;1.37;;
51961;SDS011;37986;51.238;17.128;2022-08-03T13:27:14;5.22;;;1.40;;
51961;SDS011;37986;51.238;17.128;2022-08-03T13:29:40;2.25;;;1.20;;
51961;SDS011;37986;51.238;17.128;2022-08-03T13:32:08;3.67;;;1.40;;
51961;SDS011;37986;51.238;17.128;2022-08-03T13:34:34;5.05;;;1.30;;
51961;SDS011;37986;51.238;17.128;2022-08-03T13:37:01;4.30;;;1.50;;
51961;SDS011;37986;51.238;17.128;2022-08-03T13:39:27;2.33;;;1.50;;
51961;SDS011;37986;51.238;17.128;2022-08-03T13:41:53;2.65;;;1.52;;
51961;SDS011;37986;51.238;17.128;2022-08-03T13:44:20;2.20;;;1.20;;
51961;SDS011;37986;51.238;17.128;2022-08-03T13:46:46;1.67;;;1.30;;
51961;SDS011;37986;51.238;17.128;2022-08-03T13:49:12;3.22;;;1.32;;
51961;SDS011;37986;51.238;17.128;2022-08-03T13:51:39;3.33;;;1.32;;
51961;SDS011;37986;51.238;17.128;2022-08-03T13:54:05;3.25;;;1.62;;
51961;SDS011;37986;51.238;17.128;2022-08-03T13:56:31;2.35;;;1.45;;
51961;SDS011;37986;51.238;17.128;2022-08-03T13:58:57;3.50;;;1.90;;
51961;SDS011;37986;51.238;17.128;2022-08-03T14:01:23;2.05;;;1.10;;
51961;SDS011;37986;51.238;17.128;2022-08-03T14:03:50;2.47;;;1.40;;
51961;SDS011;37986;51.238;17.128;2022-08-03T14:06:23;3.10;;;1.37;;
51961;SDS011;37986;51.238;17.128;2022-08-03T14:08:47;2.67;;;1.30;;
51961;SDS011;37986;51.238;17.128;2022-08-03T14:11:13;2.02;;;1.35;;
51961;SDS011;37986;51.238;17.128;2022-08-03T14:13:39;1.80;;;1.30;;
51961;SDS011;37986;51.238;17.128;2022-08-03T14:16:06;1.60;;;1.50;;
51961;SDS011;37986;51.238;17.128;2022-08-03T14:18:32;1.50;;;1.20;;
51961;SDS011;37986;51.238;17.128;2022-08-03T14:20:59;2.75;;;1.25;;
51961;SDS011;37986;51.238;17.128;2022-08-03T14:23:34;1.77;;;1.10;;
51961;SDS011;37986;51.238;17.128;2022-08-03T14:26:03;4.92;;;1.50;;
51961;SDS011;37986;51.238;17.128;2022-08-03T14:28:30;3.77;;;1.22;;
51961;SDS011;37986;51.238;17.128;2022-08-03T14:30:57;2.62;;;1.57;;
51961;SDS011;37986;51.238;17.128;2022-08-03T14:33:23;4.10;;;1.20;;
51961;SDS011;37986;51.238;17.128;2022-08-03T14:35:52;1.70;;;1.22;;
51961;SDS011;37986;51.238;17.128;2022-08-03T14:38:18;3.00;;;1.42;;
51961;SDS011;37986;51.238;17.128;2022-08-03T14:40:45;5.72;;;1.45;;
51961;SDS011;37986;51.238;17.128;2022-08-03T14:43:12;4.12;;;1.70;;
51961;SDS011;37986;51.238;17.128;2022-08-03T14:45:39;2.08;;;1.30;;
51961;SDS011;37986;51.238;17.128;2022-08-03T14:48:05;4.62;;;1.70;;
51961;SDS011;37986;51.238;17.128;2022-08-03T14:50:31;3.33;;;1.20;;
51961;SDS011;37986;51.238;17.128;2022-08-03T14:52:57;2.65;;;1.25;;
51961;SDS011;37986;51.238;17.128;2022-08-03T14:55:23;4.62;;;1.37;;
51961;SDS011;37986;51.238;17.128;2022-08-03T14:57:49;5.60;;;1.32;;
51961;SDS011;37986;51.238;17.128;2022-08-03T15:00:15;3.58;;;1.30;;
51961;SDS011;37986;51.238;17.128;2022-08-03T15:02:43;5.50;;;1.40;;
51961;SDS011;37986;51.238;17.128;2022-08-03T15:05:09;2.62;;;1.35;;
51961;SDS011;37986;51.238;17.128;2022-08-03T15:07:37;2.58;;;1.37;;
51961;SDS011;37986;51.238;17.128;2022-08-03T15:10:03;2.27;;;1.60;;
51961;SDS011;37986;51.238;17.128;2022-08-03T15:12:30;4.08;;;1.30;;
51961;SDS011;37986;51.238;17.128;2022-08-03T15:15:01;4.67;;;1.37;;
51961;SDS011;37986;51.238;17.128;2022-08-03T15:17:24;1.72;;;1.40;;
51961;SDS011;37986;51.238;17.128;2022-08-03T15:19:50;3.90;;;1.27;;
51961;SDS011;37986;51.238;17.128;2022-08-03T15:22:16;3.10;;;1.57;;
51961;SDS011;37986;51.238;17.128;2022-08-03T15:24:43;6.12;;;1.52;;
51961;SDS011;37986;51.238;17.128;2022-08-03T15:27:09;2.75;;;1.50;;
51961;SDS011;37986;51.238;17.128;2022-08-03T15:29:35;8.00;;;1.70;;
51961;SDS011;37986;51.238;17.128;2022-08-03T15:32:00;2.30;;;1.35;;
51961;SDS011;37986;51.238;17.128;2022-08-03T15:34:26;3.95;;;1.30;;